Weather History for Grand Marais Airport, MN

Change the Weather History Date:

Monday, September 3, 2012

  Actual Average Record
Temperature  
Mean Temperature 66 °F -  
Max Temperature 80 °F 65 °F 80 °F (2012)
Min Temperature 53 °F 47 °F 28 °F (1997)
Cooling Degree Days 2    
Growing Degree Days 16 (Base 50)    
Moisture  
Dew Point 52 °F    
Average Humidity 62    
Maximum Humidity 88    
Minimum Humidity 23    
Precipitation  
Precipitation 0.00 in - - ()
Sea Level Pressure  
Sea Level Pressure 29.91 in    
Wind  
Wind Speed 3 mph (West)    
Max Wind Speed 9 mph    
Max Gust Speed -    
Visibility 10 miles    
Events Thunderstorm    
Averages and records for this station are not official NWS values.
T = Trace of Precipitation, MM = Missing Value Source: NWS Daily Summary

Daily Weather History Graph

Daily Weather History Graph

Search for Another Location

Airport:

Trip Planner

Search our weather history database for the weather conditions in past years. The results will help you decide how hot, cold, wet, or windy it might be!

Date:

Astronomy

Sep. 03, 2012 Rise Set
Actual Time 6:23 AM CDT 7:37 PM CDT
Civil Twilight 5:51 AM CDT 8:09 PM CDT
Nautical Twilight 5:12 AM CDT 8:47 PM CDT
Astronomical Twilight 4:31 AM CDT 9:28 PM CDT
Moon 8:35 PM CDT (9/3) 9:51 AM CDT (9/3)
Length of Visible Light 14h 17m
Length of Day
13h 14m
Waning Gibbous, 90% of the Moon is Illuminated
Sep 3
Waning Gibbous
Sep 8
Last Quarter
Sep 15
New
Sep 22
First Quarter
Sep 29
Full

Hourly Weather History & Observations

Time (CDT) Temp. Dew Point Humidity Pressure Visibility Wind Dir Wind Speed Gust Speed Precip Events Conditions
12:14 AM 60.8 °F 53.6 °F 77% 29.90 in 10.0 mi Calm Calm - N/A   Scattered Clouds
12:33 AM 60.8 °F 53.6 °F 77% 29.90 in 10.0 mi Calm Calm - N/A   Scattered Clouds
12:54 AM 60.8 °F 55.4 °F 82% 29.89 in 10.0 mi Calm Calm - N/A   Clear
1:14 AM 64.4 °F 55.4 °F 73% 29.89 in 10.0 mi ESE 3.5 mph - N/A   Scattered Clouds
1:33 AM 64.4 °F 57.2 °F 77% 29.88 in 10.0 mi Calm Calm - N/A   Scattered Clouds
1:54 AM 64.4 °F 55.4 °F 73% 29.88 in 10.0 mi Calm Calm - N/A   Scattered Clouds
2:14 AM 64.4 °F 55.4 °F 73% 29.88 in 10.0 mi SE 3.5 mph - N/A   Scattered Clouds
2:33 AM 64.4 °F 57.2 °F 77% 29.88 in 10.0 mi Calm Calm - N/A   Clear
2:54 AM 62.6 °F 57.2 °F 82% 29.87 in 10.0 mi Calm Calm - N/A   Scattered Clouds
3:13 AM 60.8 °F 57.2 °F 88% 29.87 in 10.0 mi Calm Calm - N/A   Clear
3:34 AM 62.6 °F 57.2 °F 82% 29.87 in 10.0 mi Calm Calm - N/A   Clear
3:53 AM 62.6 °F 57.2 °F 82% 29.88 in 10.0 mi Calm Calm - N/A   Clear
4:13 AM 60.8 °F 55.4 °F 82% 29.88 in 10.0 mi Calm Calm - N/A Thunderstorm Thunderstorm
4:34 AM 60.8 °F 57.2 °F 88% 29.88 in 10.0 mi Calm Calm - N/A   Clear
5:13 AM 62.6 °F 57.2 °F 82% 29.87 in 10.0 mi WSW 4.6 mph - N/A   Clear
5:34 AM 62.6 °F 57.2 °F 82% 29.87 in 10.0 mi West 4.6 mph - N/A   Clear
5:54 AM 62.6 °F 57.2 °F 82% 29.88 in 10.0 mi West 4.6 mph - N/A   Clear
6:13 AM 60.8 °F 57.2 °F 88% 29.88 in 10.0 mi WNW 4.6 mph - N/A   Clear
6:34 AM 62.6 °F 57.2 °F 82% 29.88 in 10.0 mi NW 4.6 mph - N/A   Clear
6:54 AM 62.6 °F 59.0 °F 88% 29.88 in 10.0 mi NW 5.8 mph - N/A   Clear
7:14 AM 64.4 °F 59.0 °F 83% 29.88 in 10.0 mi NW 8.1 mph - N/A   Clear
7:33 AM 64.4 °F 59.0 °F 83% 29.89 in 10.0 mi NW 6.9 mph - N/A   Clear
7:53 AM 66.2 °F 59.0 °F 78% 29.89 in 10.0 mi NW 6.9 mph - N/A   Clear
8:13 AM 68.0 °F 60.8 °F 78% 29.90 in 10.0 mi NW 8.1 mph - N/A   Clear
8:34 AM 69.8 °F 60.8 °F 73% 29.90 in 10.0 mi NW 9.2 mph - N/A   Clear
8:54 AM 71.6 °F 60.8 °F 69% 29.90 in 10.0 mi NW 8.1 mph - N/A   Clear
9:13 AM 71.6 °F 59.0 °F 64% 29.91 in 10.0 mi NW 6.9 mph - N/A   Clear
9:34 AM 73.4 °F 57.2 °F 57% 29.91 in 10.0 mi NW 6.9 mph - N/A   Clear
9:54 AM 73.4 °F 55.4 °F 53% 29.92 in 10.0 mi NW 5.8 mph - N/A   Clear
10:13 AM 75.2 °F 55.4 °F 50% 29.92 in 10.0 mi NW 5.8 mph - N/A   Clear
10:34 AM 75.2 °F 55.4 °F 50% 29.93 in 10.0 mi NW 4.6 mph - N/A   Clear
10:54 AM 77.0 °F 53.6 °F 44% 29.93 in 10.0 mi West 5.8 mph - N/A   Clear
11:13 AM 77.0 °F 51.8 °F 41% 29.94 in 10.0 mi NW 4.6 mph - N/A   Clear
11:34 AM 77.0 °F 51.8 °F 41% 29.93 in 10.0 mi Calm Calm - N/A   Clear
11:54 AM 78.8 °F 51.8 °F 39% 29.94 in 10.0 mi NNW 5.8 mph - N/A   Clear
12:13 PM 78.8 °F 46.4 °F 32% 29.94 in 10.0 mi WNW 5.8 mph - N/A   Clear
12:33 PM 78.8 °F 42.8 °F 28% 29.94 in 10.0 mi WNW 4.6 mph - N/A   Clear
12:54 PM 78.8 °F 42.8 °F 28% 29.93 in 10.0 mi NW 5.8 mph - N/A   Clear
1:13 PM 80.6 °F 41.0 °F 24% 29.93 in 10.0 mi West 3.5 mph - N/A   Clear
1:33 PM 80.6 °F 42.8 °F 26% 29.93 in 10.0 mi Calm Calm - N/A   Clear
1:54 PM 80.6 °F 41.0 °F 24% 29.93 in 10.0 mi Calm Calm - N/A   Clear
2:14 PM 80.6 °F 42.8 °F 26% 29.92 in 10.0 mi North 4.6 mph - N/A   Clear
2:33 PM 80.6 °F 42.8 °F 26% 29.92 in 10.0 mi West 5.8 mph - N/A   Clear
2:41 PM 80.6 °F 42.8 °F 26% 29.92 in 10.0 mi West 4.6 mph - N/A   Clear
3:14 PM 80.6 °F 44.6 °F 28% 29.92 in 10.0 mi West 5.8 mph - N/A   Clear
3:34 PM 80.6 °F 42.8 °F 26% 29.92 in 10.0 mi West 5.8 mph - N/A   Clear
3:53 PM 80.6 °F 42.8 °F 26% 29.91 in 10.0 mi SW 4.6 mph - N/A   Clear
4:14 PM 80.6 °F 42.8 °F 26% 29.91 in 10.0 mi WNW 5.8 mph - N/A   Clear
4:34 PM 80.6 °F 42.8 °F 26% 29.91 in 10.0 mi West 6.9 mph - N/A   Clear
4:53 PM 80.6 °F 39.2 °F 23% 29.91 in 10.0 mi WNW 3.5 mph - N/A   Clear
5:13 PM 77.0 °F 53.6 °F 44% 29.91 in 10.0 mi South 4.6 mph - N/A   Clear
5:33 PM 75.2 °F 53.6 °F 47% 29.91 in 10.0 mi South 4.6 mph - N/A   Clear
5:54 PM 73.4 °F 53.6 °F 50% 29.92 in 10.0 mi South 6.9 mph - N/A   Clear
6:13 PM 73.4 °F 53.6 °F 50% 29.92 in 10.0 mi South 4.6 mph - N/A   Clear
6:34 PM 69.8 °F 53.6 °F 56% 29.91 in 10.0 mi SSW 3.5 mph - N/A   Clear
6:54 PM 68.0 °F 53.6 °F 60% 29.91 in 10.0 mi SSW 4.6 mph - N/A   Clear
7:13 PM 66.2 °F 53.6 °F 64% 29.92 in 10.0 mi SSW 3.5 mph - N/A   Clear
7:34 PM 64.4 °F 51.8 °F 64% 29.92 in 10.0 mi SSW 3.5 mph - N/A   Clear
7:53 PM 64.4 °F 53.6 °F 68% 29.93 in 10.0 mi SW 4.6 mph - N/A   Clear
8:13 PM 62.6 °F 51.8 °F 68% 29.93 in 10.0 mi SW 3.5 mph - N/A   Clear
8:34 PM 62.6 °F 51.8 °F 68% 29.93 in 10.0 mi Calm Calm - N/A   Clear
8:53 PM 60.8 °F 51.8 °F 72% 29.93 in 10.0 mi Calm Calm - N/A   Clear
9:13 PM 57.2 °F 51.8 °F 82% 29.93 in 10.0 mi Calm Calm - N/A   Clear
9:33 PM 57.2 °F 51.8 °F 82% 29.93 in 10.0 mi Calm Calm - N/A   Clear
9:54 PM 57.2 °F 51.8 °F 82% 29.93 in 10.0 mi Calm Calm - N/A   Clear
10:13 PM 55.4 °F 51.8 °F 88% 29.93 in 10.0 mi Calm Calm - N/A   Clear
10:34 PM 55.4 °F 50.0 °F 82% 29.93 in 10.0 mi Calm Calm - N/A   Clear
10:53 PM 53.6 °F 48.2 °F 82% 29.93 in 10.0 mi Calm Calm - N/A   Clear
11:13 PM 53.6 °F 48.2 °F 82% 29.93 in 10.0 mi Calm Calm - N/A   Clear
11:34 PM 53.6 °F 48.2 °F 82% 29.93 in 10.0 mi Calm Calm - N/A   Clear
11:53 PM 53.6 °F 48.2 °F 82% 29.93 in 10.0 mi Calm Calm - N/A   Clear